sensor_id;sensor_type;location;lat;lon;timestamp;pressure;altitude;pressure_sealevel;temperature;humidity
72061;BME280;59925;52.136;5.420;2022-12-18T00:01:27;103086.31;;;-4.37;93.41
72061;BME280;59925;52.136;5.420;2022-12-18T00:03:55;103074.75;;;-4.35;93.25
72061;BME280;59925;52.136;5.420;2022-12-18T00:06:22;103067.34;;;-4.41;93.27
72061;BME280;59925;52.136;5.420;2022-12-18T00:08:49;103064.84;;;-4.42;92.83
72061;BME280;59925;52.136;5.420;2022-12-18T00:11:21;103058.75;;;-4.43;92.91
72061;BME280;59925;52.136;5.420;2022-12-18T00:13:49;103054.13;;;-4.51;93.15
72061;BME280;59925;52.136;5.420;2022-12-18T00:16:17;103060.88;;;-4.59;93.19
72061;BME280;59925;52.136;5.420;2022-12-18T00:18:48;103063.38;;;-4.58;93.02
72061;BME280;59925;52.136;5.420;2022-12-18T00:21:15;103058.22;;;-4.71;92.80
72061;BME280;59925;52.136;5.420;2022-12-18T00:23:43;103066.38;;;-4.75;92.71
72061;BME280;59925;52.136;5.420;2022-12-18T00:26:12;103064.63;;;-4.75;93.01
72061;BME280;59925;52.136;5.420;2022-12-18T00:28:42;103069.13;;;-4.77;92.97
72061;BME280;59925;52.136;5.420;2022-12-18T00:31:11;103069.97;;;-4.77;93.03
72061;BME280;59925;52.136;5.420;2022-12-18T00:33:38;103063.56;;;-4.72;92.88
72061;BME280;59925;52.136;5.420;2022-12-18T00:36:07;103058.09;;;-4.69;93.04
72061;BME280;59925;52.136;5.420;2022-12-18T00:38:35;103059.78;;;-4.68;92.95
72061;BME280;59925;52.136;5.420;2022-12-18T00:41:02;103058.31;;;-4.72;92.87
72061;BME280;59925;52.136;5.420;2022-12-18T00:43:29;103053.00;;;-4.71;93.17
72061;BME280;59925;52.136;5.420;2022-12-18T00:45:55;103060.00;;;-4.71;93.45
72061;BME280;59925;52.136;5.420;2022-12-18T00:48:22;103065.13;;;-4.70;93.25
72061;BME280;59925;52.136;5.420;2022-12-18T00:50:49;103055.59;;;-4.71;93.27
72061;BME280;59925;52.136;5.420;2022-12-18T00:53:16;103055.81;;;-4.74;93.00
72061;BME280;59925;52.136;5.420;2022-12-18T00:55:43;103061.75;;;-4.83;93.05
72061;BME280;59925;52.136;5.420;2022-12-18T00:58:10;103061.75;;;-4.83;93.02
72061;BME280;59925;52.136;5.420;2022-12-18T01:00:37;103058.06;;;-4.81;93.02
72061;BME280;59925;52.136;5.420;2022-12-18T01:03:04;103052.81;;;-4.81;92.95
72061;BME280;59925;52.136;5.420;2022-12-18T01:05:31;103058.28;;;-4.84;93.16
72061;BME280;59925;52.136;5.420;2022-12-18T01:07:59;103041.75;;;-4.84;93.17
72061;BME280;59925;52.136;5.420;2022-12-18T01:10:26;103048.66;;;-4.83;93.03
72061;BME280;59925;52.136;5.420;2022-12-18T01:12:52;103045.91;;;-4.82;93.11
72061;BME280;59925;52.136;5.420;2022-12-18T01:15:19;103049.13;;;-4.78;93.06
72061;BME280;59925;52.136;5.420;2022-12-18T01:17:45;103042.34;;;-4.81;93.04
72061;BME280;59925;52.136;5.420;2022-12-18T01:20:12;103050.44;;;-4.84;92.98
72061;BME280;59925;52.136;5.420;2022-12-18T01:22:39;103052.31;;;-4.86;92.90
72061;BME280;59925;52.136;5.420;2022-12-18T01:25:06;103049.81;;;-4.87;93.08
72061;BME280;59925;52.136;5.420;2022-12-18T01:27:33;103058.50;;;-4.87;93.14
72061;BME280;59925;52.136;5.420;2022-12-18T01:30:00;103073.97;;;-4.84;93.04
72061;BME280;59925;52.136;5.420;2022-12-18T01:32:29;103071.81;;;-4.90;92.98
72061;BME280;59925;52.136;5.420;2022-12-18T01:34:56;103069.41;;;-4.93;93.06
72061;BME280;59925;52.136;5.420;2022-12-18T01:37:23;103067.13;;;-4.98;93.24
72061;BME280;59925;52.136;5.420;2022-12-18T01:39:49;103068.91;;;-4.98;93.06
72061;BME280;59925;52.136;5.420;2022-12-18T01:42:16;103076.03;;;-5.00;93.18
72061;BME280;59925;52.136;5.420;2022-12-18T01:50:31;103076.75;;;-4.98;93.13
72061;BME280;59925;52.136;5.420;2022-12-18T01:53:14;103074.47;;;-5.03;93.07
72061;BME280;59925;52.136;5.420;2022-12-18T01:55:45;103073.00;;;-5.07;93.24
72061;BME280;59925;52.136;5.420;2022-12-18T01:58:13;103067.19;;;-5.11;93.16
72061;BME280;59925;52.136;5.420;2022-12-18T02:00:39;103080.72;;;-5.17;92.95
72061;BME280;59925;52.136;5.420;2022-12-18T02:03:06;103086.03;;;-5.18;93.18
72061;BME280;59925;52.136;5.420;2022-12-18T02:11:17;103089.44;;;-5.29;93.13
72061;BME280;59925;52.136;5.420;2022-12-18T02:14:28;103090.56;;;-5.33;92.59
72061;BME280;59925;52.136;5.420;2022-12-18T02:19:08;103080.31;;;-5.36;92.72
72061;BME280;59925;52.136;5.420;2022-12-18T02:21:48;103091.00;;;-5.40;92.57
72061;BME280;59925;52.136;5.420;2022-12-18T02:24:42;103080.03;;;-5.45;92.89
72061;BME280;59925;52.136;5.420;2022-12-18T02:27:11;103086.22;;;-5.46;93.11
72061;BME280;59925;52.136;5.420;2022-12-18T02:29:59;103088.09;;;-5.48;93.00
72061;BME280;59925;52.136;5.420;2022-12-18T02:32:30;103094.25;;;-5.49;92.86
72061;BME280;59925;52.136;5.420;2022-12-18T02:34:59;103089.22;;;-5.52;92.99
72061;BME280;59925;52.136;5.420;2022-12-18T02:37:27;103089.22;;;-5.52;92.95
72061;BME280;59925;52.136;5.420;2022-12-18T02:39:56;103084.00;;;-5.52;92.91
72061;BME280;59925;52.136;5.420;2022-12-18T02:42:24;103079.63;;;-5.51;92.68
72061;BME280;59925;52.136;5.420;2022-12-18T02:44:51;103071.88;;;-5.53;92.78
72061;BME280;59925;52.136;5.420;2022-12-18T02:47:20;103063.31;;;-5.55;92.85
72061;BME280;59925;52.136;5.420;2022-12-18T02:50:28;103054.97;;;-5.60;92.62
72061;BME280;59925;52.136;5.420;2022-12-18T03:01:57;103059.88;;;-5.69;92.46
72061;BME280;59925;52.136;5.420;2022-12-18T03:04:43;103061.66;;;-5.69;92.55
72061;BME280;59925;52.136;5.420;2022-12-18T03:07:21;103048.72;;;-5.71;92.20
72061;BME280;59925;52.136;5.420;2022-12-18T03:09:50;103044.53;;;-5.73;92.33
72061;BME280;59925;52.136;5.420;2022-12-18T03:12:30;103046.41;;;-5.75;92.07
72061;BME280;59925;52.136;5.420;2022-12-18T03:15:10;103044.03;;;-5.78;92.14
72061;BME280;59925;52.136;5.420;2022-12-18T03:17:46;103040.06;;;-5.84;92.10
72061;BME280;59925;52.136;5.420;2022-12-18T03:20:19;103048.09;;;-5.87;92.06
72061;BME280;59925;52.136;5.420;2022-12-18T03:22:50;103034.50;;;-5.92;92.24
72061;BME280;59925;52.136;5.420;2022-12-18T03:25:18;103035.44;;;-5.93;92.14
72061;BME280;59925;52.136;5.420;2022-12-18T03:27:51;103034.94;;;-5.98;92.08
72061;BME280;59925;52.136;5.420;2022-12-18T03:30:21;103033.38;;;-6.01;92.01
72061;BME280;59925;52.136;5.420;2022-12-18T03:32:52;103033.50;;;-6.03;91.77
72061;BME280;59925;52.136;5.420;2022-12-18T03:35:29;103029.41;;;-6.07;91.56
72061;BME280;59925;52.136;5.420;2022-12-18T03:37:58;103021.69;;;-6.08;91.55
72061;BME280;59925;52.136;5.420;2022-12-18T03:40:31;103021.09;;;-6.12;91.97
72061;BME280;59925;52.136;5.420;2022-12-18T03:43:10;103018.66;;;-6.15;91.52
72061;BME280;59925;52.136;5.420;2022-12-18T03:45:50;103016.19;;;-6.17;91.92
72061;BME280;59925;52.136;5.420;2022-12-18T03:50:57;103012.72;;;-6.17;91.83
72061;BME280;59925;52.136;5.420;2022-12-18T03:56:13;103009.59;;;-6.22;91.85
72061;BME280;59925;52.136;5.420;2022-12-18T03:58:42;103011.25;;;-6.21;91.85
72061;BME280;59925;52.136;5.420;2022-12-18T04:01:13;103005.31;;;-6.23;91.60
72061;BME280;59925;52.136;5.420;2022-12-18T04:03:42;103005.31;;;-6.23;91.73
72061;BME280;59925;52.136;5.420;2022-12-18T04:06:11;103005.41;;;-6.25;91.68
72061;BME280;59925;52.136;5.420;2022-12-18T04:08:38;102996.94;;;-6.28;91.67
72061;BME280;59925;52.136;5.420;2022-12-18T04:11:06;103003.22;;;-6.31;91.83
72061;BME280;59925;52.136;5.420;2022-12-18T04:13:35;102996.31;;;-6.32;91.60
72061;BME280;59925;52.136;5.420;2022-12-18T04:16:03;102985.88;;;-6.32;91.63
72061;BME280;59925;52.136;5.420;2022-12-18T04:18:30;102989.53;;;-6.35;91.50
72061;BME280;59925;52.136;5.420;2022-12-18T04:20:57;102987.03;;;-6.36;91.80
72061;BME280;59925;52.136;5.420;2022-12-18T04:23:23;102981.91;;;-6.38;91.61
72061;BME280;59925;52.136;5.420;2022-12-18T04:25:50;102983.59;;;-6.37;91.52
72061;BME280;59925;52.136;5.420;2022-12-18T04:28:16;102975.84;;;-6.38;91.82
72061;BME280;59925;52.136;5.420;2022-12-18T04:30:43;102975.84;;;-6.38;91.53
72061;BME280;59925;52.136;5.420;2022-12-18T04:33:11;102989.00;;;-6.40;91.54
72061;BME280;59925;52.136;5.420;2022-12-18T04:35:39;102978.56;;;-6.40;91.56
72061;BME280;59925;52.136;5.420;2022-12-18T04:38:06;102978.56;;;-6.40;91.92
72061;BME280;59925;52.136;5.420;2022-12-18T04:40:33;102982.00;;;-6.39;91.65
72061;BME280;59925;52.136;5.420;2022-12-18T04:43:03;102982.13;;;-6.41;91.87
72061;BME280;59925;52.136;5.420;2022-12-18T04:45:30;102995.28;;;-6.42;91.67
72061;BME280;59925;52.136;5.420;2022-12-18T04:47:58;102997.03;;;-6.43;91.46
72061;BME280;59925;52.136;5.420;2022-12-18T04:50:24;103005.72;;;-6.42;91.65
72061;BME280;59925;52.136;5.420;2022-12-18T04:52:51;103007.47;;;-6.43;91.65
72061;BME280;59925;52.136;5.420;2022-12-18T04:55:17;103018.97;;;-6.45;91.31
72061;BME280;59925;52.136;5.420;2022-12-18T04:57:44;103008.53;;;-6.45;91.53
72061;BME280;59925;52.136;5.420;2022-12-18T05:00:11;103013.00;;;-6.48;91.60
72061;BME280;59925;52.136;5.420;2022-12-18T05:02:37;103024.38;;;-6.49;91.47
72061;BME280;59925;52.136;5.420;2022-12-18T05:05:04;103022.59;;;-6.48;91.57
72061;BME280;59925;52.136;5.420;2022-12-18T05:07:31;103021.91;;;-6.50;91.60
72061;BME280;59925;52.136;5.420;2022-12-18T05:09:57;103028.06;;;-6.51;91.43
72061;BME280;59925;52.136;5.420;2022-12-18T05:12:24;103036.81;;;-6.52;91.52
72061;BME280;59925;52.136;5.420;2022-12-18T05:14:51;103021.97;;;-6.52;91.38
72061;BME280;59925;52.136;5.420;2022-12-18T05:17:17;103031.59;;;-6.52;91.35
72061;BME280;59925;52.136;5.420;2022-12-18T05:19:44;103033.28;;;-6.51;91.38
72061;BME280;59925;52.136;5.420;2022-12-18T05:22:11;103041.91;;;-6.51;91.37
72061;BME280;59925;52.136;5.420;2022-12-18T05:24:37;103042.03;;;-6.52;91.32
72061;BME280;59925;52.136;5.420;2022-12-18T05:27:04;103042.03;;;-6.52;91.48
72061;BME280;59925;52.136;5.420;2022-12-18T05:29:30;103050.69;;;-6.52;91.37
72061;BME280;59925;52.136;5.420;2022-12-18T05:31:57;103061.88;;;-6.50;91.32
72061;BME280;59925;52.136;5.420;2022-12-18T05:34:23;103064.59;;;-6.51;91.19
72061;BME280;59925;52.136;5.420;2022-12-18T05:36:50;103054.03;;;-6.50;91.43
72061;BME280;59925;52.136;5.420;2022-12-18T05:39:16;103053.09;;;-6.49;91.19
72061;BME280;59925;52.136;5.420;2022-12-18T05:41:43;103049.56;;;-6.48;90.99
72061;BME280;59925;52.136;5.420;2022-12-18T05:44:09;103044.44;;;-6.49;91.16
72061;BME280;59925;52.136;5.420;2022-12-18T05:46:35;103032.34;;;-6.50;91.09
72061;BME280;59925;52.136;5.420;2022-12-18T05:49:02;103027.13;;;-6.50;90.99
72061;BME280;59925;52.136;5.420;2022-12-18T05:51:29;103032.34;;;-6.50;91.03
72061;BME280;59925;52.136;5.420;2022-12-18T05:53:55;103027.13;;;-6.50;90.86
72061;BME280;59925;52.136;5.420;2022-12-18T05:56:22;103023.03;;;-6.54;90.85
72061;BME280;59925;52.136;5.420;2022-12-18T05:58:53;103026.56;;;-6.55;90.66
72061;BME280;59925;52.136;5.420;2022-12-18T06:01:23;103019.69;;;-6.56;90.76
72061;BME280;59925;52.136;5.420;2022-12-18T06:03:49;103013.72;;;-6.58;90.52
72061;BME280;59925;52.136;5.420;2022-12-18T06:06:22;103018.13;;;-6.59;90.64
72061;BME280;59925;52.136;5.420;2022-12-18T06:08:50;103017.25;;;-6.59;90.73
72061;BME280;59925;52.136;5.420;2022-12-18T06:11:20;103018.31;;;-6.62;90.67
72061;BME280;59925;52.136;5.420;2022-12-18T06:13:50;103014.03;;;-6.63;90.61
72061;BME280;59925;52.136;5.420;2022-12-18T06:16:23;103006.41;;;-6.66;90.58
72061;BME280;59925;52.136;5.420;2022-12-18T06:18:50;103004.84;;;-6.69;90.54
72061;BME280;59925;52.136;5.420;2022-12-18T06:21:16;103001.50;;;-6.71;90.60
72061;BME280;59925;52.136;5.420;2022-12-18T06:23:43;102999.00;;;-6.72;90.74
72061;BME280;59925;52.136;5.420;2022-12-18T06:26:11;103005.16;;;-6.73;90.60
72061;BME280;59925;52.136;5.420;2022-12-18T06:28:38;102993.16;;;-6.76;90.54
72061;BME280;59925;52.136;5.420;2022-12-18T06:31:05;102993.22;;;-6.78;90.38
72061;BME280;59925;52.136;5.420;2022-12-18T06:33:32;102990.81;;;-6.81;90.45
72061;BME280;59925;52.136;5.420;2022-12-18T06:36:07;102989.25;;;-6.83;90.46
72061;BME280;59925;52.136;5.420;2022-12-18T06:38:35;102983.31;;;-6.85;90.44
72061;BME280;59925;52.136;5.420;2022-12-18T06:43:35;102977.66;;;-6.92;90.23
72061;BME280;59925;52.136;5.420;2022-12-18T06:46:04;102978.69;;;-6.95;90.41
72061;BME280;59925;52.136;5.420;2022-12-18T06:48:31;102981.50;;;-6.98;90.25
72061;BME280;59925;52.136;5.420;2022-12-18T06:50:58;102965.97;;;-6.99;90.42
72061;BME280;59925;52.136;5.420;2022-12-18T06:53:25;102963.53;;;-7.02;90.65
72061;BME280;59925;52.136;5.420;2022-12-18T06:55:51;102956.78;;;-7.05;90.25
72061;BME280;59925;52.136;5.420;2022-12-18T06:58:18;102960.31;;;-7.06;90.04
72061;BME280;59925;52.136;5.420;2022-12-18T07:00:44;102953.63;;;-7.10;89.86
72061;BME280;59925;52.136;5.420;2022-12-18T07:03:11;102952.13;;;-7.14;90.32
72061;BME280;59925;52.136;5.420;2022-12-18T07:05:40;102949.53;;;-7.14;90.24
72061;BME280;59925;52.136;5.420;2022-12-18T07:08:07;102945.28;;;-7.15;90.06
72061;BME280;59925;52.136;5.420;2022-12-18T07:10:33;102946.09;;;-7.15;89.98
72061;BME280;59925;52.136;5.420;2022-12-18T07:12:59;102952.13;;;-7.14;90.09
72061;BME280;59925;52.136;5.420;2022-12-18T07:15:26;102948.81;;;-7.16;90.29
72061;BME280;59925;52.136;5.420;2022-12-18T07:17:52;102944.63;;;-7.19;90.30
72061;BME280;59925;52.136;5.420;2022-12-18T07:20:19;102935.13;;;-7.20;90.49
72061;BME280;59925;52.136;5.420;2022-12-18T07:22:45;102937.72;;;-7.20;90.10
72061;BME280;59925;52.136;5.420;2022-12-18T07:25:11;102938.59;;;-7.19;90.24
72061;BME280;59925;52.136;5.420;2022-12-18T07:27:38;102936.91;;;-7.20;90.31
72061;BME280;59925;52.136;5.420;2022-12-18T07:30:05;102945.56;;;-7.20;90.51
72061;BME280;59925;52.136;5.420;2022-12-18T07:32:31;102938.66;;;-7.21;90.36
72061;BME280;59925;52.136;5.420;2022-12-18T07:34:58;102921.38;;;-7.22;90.13
72061;BME280;59925;52.136;5.420;2022-12-18T07:37:24;102923.13;;;-7.22;90.33
72061;BME280;59925;52.136;5.420;2022-12-18T07:39:51;102914.56;;;-7.25;90.49
72061;BME280;59925;52.136;5.420;2022-12-18T07:42:17;102912.06;;;-7.26;90.43
72061;BME280;59925;52.136;5.420;2022-12-18T07:44:59;102920.72;;;-7.26;90.45
72061;BME280;59925;52.136;5.420;2022-12-18T07:47:27;102905.94;;;-7.25;90.42
72061;BME280;59925;52.136;5.420;2022-12-18T07:49:54;102898.84;;;-7.23;90.22
72061;BME280;59925;52.136;5.420;2022-12-18T07:52:21;102896.25;;;-7.23;90.58
72061;BME280;59925;52.136;5.420;2022-12-18T07:54:51;102896.13;;;-7.21;90.38
72061;BME280;59925;52.136;5.420;2022-12-18T07:57:18;102881.22;;;-7.19;90.40
72061;BME280;59925;52.136;5.420;2022-12-18T08:00:05;102882.91;;;-7.18;90.61
72061;BME280;59925;52.136;5.420;2022-12-18T08:02:31;102891.47;;;-7.16;90.43
72061;BME280;59925;52.136;5.420;2022-12-18T08:04:58;102886.97;;;-7.14;90.69
72061;BME280;59925;52.136;5.420;2022-12-18T08:07:25;102884.16;;;-7.11;90.54
72061;BME280;59925;52.136;5.420;2022-12-18T08:09:51;102870.81;;;-7.06;90.53
72061;BME280;59925;52.136;5.420;2022-12-18T08:12:17;102866.25;;;-7.03;90.59
72061;BME280;59925;52.136;5.420;2022-12-18T08:14:44;102869.47;;;-6.99;90.56
72061;BME280;59925;52.136;5.420;2022-12-18T08:17:10;102868.34;;;-6.95;90.61
72061;BME280;59925;52.136;5.420;2022-12-18T08:19:37;102869.06;;;-6.93;90.69
72061;BME280;59925;52.136;5.420;2022-12-18T08:22:03;102878.16;;;-6.86;90.80
72061;BME280;59925;52.136;5.420;2022-12-18T08:24:30;102872.50;;;-6.80;90.73
72061;BME280;59925;52.136;5.420;2022-12-18T08:26:56;102874.81;;;-6.75;90.89
72061;BME280;59925;52.136;5.420;2022-12-18T08:29:43;102893.50;;;-6.68;90.60
72061;BME280;59925;52.136;5.420;2022-12-18T08:32:09;102901.00;;;-6.64;90.85
72061;BME280;59925;52.136;5.420;2022-12-18T08:34:36;102901.50;;;-6.58;90.89
72061;BME280;59925;52.136;5.420;2022-12-18T08:37:02;102906.31;;;-6.52;90.87
72061;BME280;59925;52.136;5.420;2022-12-18T08:39:29;102901.72;;;-6.49;90.67
72061;BME280;59925;52.136;5.420;2022-12-18T08:41:56;102896.19;;;-6.44;90.60
72061;BME280;59925;52.136;5.420;2022-12-18T08:44:41;102892.31;;;-6.38;91.05
72061;BME280;59925;52.136;5.420;2022-12-18T08:47:07;102877.06;;;-6.32;90.91
72061;BME280;59925;52.136;5.420;2022-12-18T08:49:34;102876.75;;;-6.27;91.14
72061;BME280;59925;52.136;5.420;2022-12-18T08:52:01;102890.19;;;-6.20;90.81
72061;BME280;59925;52.136;5.420;2022-12-18T08:54:29;102889.91;;;-6.16;90.91
72061;BME280;59925;52.136;5.420;2022-12-18T08:56:55;102883.41;;;-6.10;90.83
72061;BME280;59925;52.136;5.420;2022-12-18T08:59:21;102878.59;;;-6.03;90.87
72061;BME280;59925;52.136;5.420;2022-12-18T09:01:49;102896.06;;;-5.92;90.55
72061;BME280;59925;52.136;5.420;2022-12-18T09:04:16;102900.13;;;-5.88;90.72
72061;BME280;59925;52.136;5.420;2022-12-18T09:06:42;102909.53;;;-5.86;90.79
72061;BME280;59925;52.136;5.420;2022-12-18T09:09:09;102895.41;;;-5.83;90.77
72061;BME280;59925;52.136;5.420;2022-12-18T09:11:36;102884.97;;;-5.83;90.63
72061;BME280;59925;52.136;5.420;2022-12-18T09:14:02;102890.81;;;-5.79;90.60
72061;BME280;59925;52.136;5.420;2022-12-18T09:16:31;102884.50;;;-5.77;90.72
72061;BME280;59925;52.136;5.420;2022-12-18T09:18:58;102884.09;;;-5.71;90.78
72061;BME280;59925;52.136;5.420;2022-12-18T09:21:28;102876.38;;;-5.61;90.59
72061;BME280;59925;52.136;5.420;2022-12-18T09:23:55;102872.88;;;-5.48;90.78
72061;BME280;59925;52.136;5.420;2022-12-18T09:26:22;102880.88;;;-5.39;90.65
72061;BME280;59925;52.136;5.420;2022-12-18T09:28:50;102884.59;;;-5.30;90.61
72061;BME280;59925;52.136;5.420;2022-12-18T09:31:18;102882.16;;;-5.20;90.56
72061;BME280;59925;52.136;5.420;2022-12-18T09:33:45;102879.78;;;-5.12;90.70
72061;BME280;59925;52.136;5.420;2022-12-18T09:36:14;102874.13;;;-5.05;90.56
72061;BME280;59925;52.136;5.420;2022-12-18T09:38:41;102860.56;;;-4.99;90.58
72061;BME280;59925;52.136;5.420;2022-12-18T09:41:39;102858.22;;;-4.91;90.48
72061;BME280;59925;52.136;5.420;2022-12-18T09:44:41;102854.75;;;-4.80;90.54
72061;BME280;59925;52.136;5.420;2022-12-18T09:47:16;102846.31;;;-4.72;90.35
72061;BME280;59925;52.136;5.420;2022-12-18T09:49:47;102854.44;;;-4.64;90.15
72061;BME280;59925;52.136;5.420;2022-12-18T09:57:35;102832.63;;;-4.42;90.37
72061;BME280;59925;52.136;5.420;2022-12-18T10:00:16;102835.50;;;-4.34;89.93
72061;BME280;59925;52.136;5.420;2022-12-18T10:02:45;102840.94;;;-4.25;89.76
72061;BME280;59925;52.136;5.420;2022-12-18T10:08:29;102830.78;;;-4.07;89.63
72061;BME280;59925;52.136;5.420;2022-12-18T10:22:19;102818.31;;;-3.71;89.19
72061;BME280;59925;52.136;5.420;2022-12-18T10:25:09;102819.31;;;-3.62;89.09
72061;BME280;59925;52.136;5.420;2022-12-18T10:27:41;102823.22;;;-3.57;88.66
72061;BME280;59925;52.136;5.420;2022-12-18T10:30:19;102829.19;;;-3.55;88.65
72061;BME280;59925;52.136;5.420;2022-12-18T10:32:46;102819.97;;;-3.49;88.38
72061;BME280;59925;52.136;5.420;2022-12-18T10:35:24;102811.75;;;-3.44;87.91
72061;BME280;59925;52.136;5.420;2022-12-18T10:43:35;102809.78;;;-3.31;87.23
72061;BME280;59925;52.136;5.420;2022-12-18T10:46:22;102802.19;;;-3.24;87.74
72061;BME280;59925;52.136;5.420;2022-12-18T10:48:52;102795.72;;;-3.20;87.35
72061;BME280;59925;52.136;5.420;2022-12-18T10:51:25;102794.28;;;-3.13;87.56
72061;BME280;59925;52.136;5.420;2022-12-18T10:54:00;102787.78;;;-3.09;86.94
72061;BME280;59925;52.136;5.420;2022-12-18T10:56:30;102794.28;;;-3.03;86.87
72061;BME280;59925;52.136;5.420;2022-12-18T10:59:03;102789.50;;;-2.98;86.99
72061;BME280;59925;52.136;5.420;2022-12-18T11:01:50;102782.91;;;-2.92;86.63
72061;BME280;59925;52.136;5.420;2022-12-18T11:09:28;102764.97;;;-2.77;87.13
72061;BME280;59925;52.136;5.420;2022-12-18T11:11:57;102758.66;;;-2.74;86.50
72061;BME280;59925;52.136;5.420;2022-12-18T11:14:26;102753.00;;;-2.70;86.67
72061;BME280;59925;52.136;5.420;2022-12-18T11:16:54;102753.44;;;-2.65;86.71
72061;BME280;59925;52.136;5.420;2022-12-18T11:19:41;102758.94;;;-2.58;86.26
72061;BME280;59925;52.136;5.420;2022-12-18T11:22:29;102740.31;;;-2.55;86.36
72061;BME280;59925;52.136;5.420;2022-12-18T11:24:59;102739.22;;;-2.52;86.09
72061;BME280;59925;52.136;5.420;2022-12-18T11:27:50;102728.16;;;-2.46;86.03
72061;BME280;59925;52.136;5.420;2022-12-18T11:33:01;102724.59;;;-2.35;85.54
72061;BME280;59925;52.136;5.420;2022-12-18T11:38:24;102734.44;;;-2.27;85.25
72061;BME280;59925;52.136;5.420;2022-12-18T11:41:02;102737.44;;;-2.22;85.30
72061;BME280;59925;52.136;5.420;2022-12-18T11:43:50;102739.81;;;-2.19;84.85
72061;BME280;59925;52.136;5.420;2022-12-18T11:46:33;102733.75;;;-2.20;84.16
72061;BME280;59925;52.136;5.420;2022-12-18T11:49:14;102727.38;;;-2.17;83.59
72061;BME280;59925;52.136;5.420;2022-12-18T11:51:51;102723.63;;;-2.14;83.17
72061;BME280;59925;52.136;5.420;2022-12-18T11:54:19;102716.88;;;-2.07;83.36
72061;BME280;59925;52.136;5.420;2022-12-18T11:56:55;102708.56;;;-2.03;83.90
72061;BME280;59925;52.136;5.420;2022-12-18T12:02:21;102701.06;;;-1.97;83.58
72061;BME280;59925;52.136;5.420;2022-12-18T12:07:57;102684.47;;;-1.98;83.17
72061;BME280;59925;52.136;5.420;2022-12-18T12:16:08;102672.03;;;-1.86;82.91
72061;BME280;59925;52.136;5.420;2022-12-18T12:21:43;102666.47;;;-1.83;82.24
72061;BME280;59925;52.136;5.420;2022-12-18T12:29:51;102653.47;;;-1.75;82.57
72061;BME280;59925;52.136;5.420;2022-12-18T12:32:54;102659.53;;;-1.74;81.71
72061;BME280;59925;52.136;5.420;2022-12-18T12:38:43;102652.88;;;-1.68;81.67
72061;BME280;59925;52.136;5.420;2022-12-18T12:41:21;102641.25;;;-1.66;82.22
72061;BME280;59925;52.136;5.420;2022-12-18T12:44:13;102647.19;;;-1.64;81.71
72061;BME280;59925;52.136;5.420;2022-12-18T12:46:43;102632.38;;;-1.65;81.49
72061;BME280;59925;52.136;5.420;2022-12-18T12:49:15;102621.13;;;-1.57;81.45
72061;BME280;59925;52.136;5.420;2022-12-18T12:51:46;102627.34;;;-1.58;81.35
72061;BME280;59925;52.136;5.420;2022-12-18T12:54:22;102620.16;;;-1.56;81.43
72061;BME280;59925;52.136;5.420;2022-12-18T12:57:11;102619.47;;;-1.58;80.54
72061;BME280;59925;52.136;5.420;2022-12-18T12:59:50;102614.78;;;-1.55;80.54
72061;BME280;59925;52.136;5.420;2022-12-18T13:02:44;102610.31;;;-1.54;80.95
72061;BME280;59925;52.136;5.420;2022-12-18T13:05:38;102608.53;;;-1.53;80.81
72061;BME280;59925;52.136;5.420;2022-12-18T13:08:29;102608.22;;;-1.50;81.03
72061;BME280;59925;52.136;5.420;2022-12-18T13:10:59;102609.75;;;-1.48;80.69
72061;BME280;59925;52.136;5.420;2022-12-18T13:13:55;102612.91;;;-1.44;80.94
72061;BME280;59925;52.136;5.420;2022-12-18T13:16:24;102611.94;;;-1.43;81.08
72061;BME280;59925;52.136;5.420;2022-12-18T13:18:53;102614.41;;;-1.42;80.88
72061;BME280;59925;52.136;5.420;2022-12-18T13:21:24;102613.31;;;-1.39;80.61
72061;BME280;59925;52.136;5.420;2022-12-18T13:23:53;102616.78;;;-1.39;80.74
72061;BME280;59925;52.136;5.420;2022-12-18T13:28:55;102610.53;;;-1.37;80.36
72061;BME280;59925;52.136;5.420;2022-12-18T13:36:56;102592.13;;;-1.37;80.43
72061;BME280;59925;52.136;5.420;2022-12-18T13:39:30;102591.16;;;-1.36;80.65
72061;BME280;59925;52.136;5.420;2022-12-18T13:44:38;102584.91;;;-1.35;80.45
72061;BME280;59925;52.136;5.420;2022-12-18T13:47:32;102577.16;;;-1.37;80.84
72061;BME280;59925;52.136;5.420;2022-12-18T13:50:00;102572.84;;;-1.38;80.66
72061;BME280;59925;52.136;5.420;2022-12-18T13:52:35;102560.53;;;-1.37;80.24
72061;BME280;59925;52.136;5.420;2022-12-18T13:55:07;102550.03;;;-1.37;80.20
72061;BME280;59925;52.136;5.420;2022-12-18T13:57:37;102553.34;;;-1.35;79.87
72061;BME280;59925;52.136;5.420;2022-12-18T14:00:27;102551.69;;;-1.36;79.43
72061;BME280;59925;52.136;5.420;2022-12-18T14:02:58;102548.88;;;-1.35;79.28
72061;BME280;59925;52.136;5.420;2022-12-18T14:05:31;102554.16;;;-1.35;79.32
72061;BME280;59925;52.136;5.420;2022-12-18T14:08:04;102540.03;;;-1.34;78.97
72061;BME280;59925;52.136;5.420;2022-12-18T14:10:32;102538.88;;;-1.31;79.86
72061;BME280;59925;52.136;5.420;2022-12-18T14:13:28;102541.69;;;-1.33;79.34
72061;BME280;59925;52.136;5.420;2022-12-18T14:15:56;102538.88;;;-1.31;79.53
72061;BME280;59925;52.136;5.420;2022-12-18T14:20:58;102527.38;;;-1.30;79.25
72061;BME280;59925;52.136;5.420;2022-12-18T14:26:25;102525.44;;;-1.28;78.47
72061;BME280;59925;52.136;5.420;2022-12-18T14:29:26;102506.03;;;-1.27;78.74
72061;BME280;59925;52.136;5.420;2022-12-18T14:34:47;102500.63;;;-1.26;78.85
72061;BME280;59925;52.136;5.420;2022-12-18T14:37:17;102498.00;;;-1.26;78.93
72061;BME280;59925;52.136;5.420;2022-12-18T14:40:00;102505.88;;;-1.26;78.10
72061;BME280;59925;52.136;5.420;2022-12-18T14:42:34;102506.72;;;-1.25;78.12
72061;BME280;59925;52.136;5.420;2022-12-18T14:45:32;102498.84;;;-1.25;77.90
72061;BME280;59925;52.136;5.420;2022-12-18T14:48:42;102499.66;;;-1.25;78.66
72061;BME280;59925;52.136;5.420;2022-12-18T14:51:13;102488.16;;;-1.24;77.90
72061;BME280;59925;52.136;5.420;2022-12-18T14:53:44;102487.34;;;-1.24;77.49
72061;BME280;59925;52.136;5.420;2022-12-18T14:56:27;102484.84;;;-1.26;77.35
72061;BME280;59925;52.136;5.420;2022-12-18T14:59:00;102485.00;;;-1.27;77.75
72061;BME280;59925;52.136;5.420;2022-12-18T15:01:47;102483.34;;;-1.28;77.32